This is the latest recevied weather packets stored in our database for station/object G7TKI-13. If no packets are shown the sender has not sent any weather packets the latest 10 day(s).
| Time | Temp. | Humidity | Pressure | Rain* | Wind** | Luminosity | Snow |
|---|---|---|---|---|---|---|---|
| 1777247858 | 6.67° C | 92% | 1029.2 hPa | 0 mm | - | 0 W/m² | - |
| 1777242394 | 7.78° C | 89% | 1028.8 hPa | 0 mm | - | 0 W/m² | - |
| 1777241166 | 7.78° C | 89% | 1028.9 hPa | 0 mm | - | 0 W/m² | - |
| 1777239943 | 7.78° C | 90% | 1028.6 hPa | 0 mm | - | 0 W/m² | - |
| 1777238147 | 8.33° C | 89% | 1029.1 hPa | 0 mm | - | 0 W/m² | - |
| 1777231778 | 9.44° C | 85% | 1028.8 hPa | 0 mm | - | 1 W/m² | - |
| 1777230543 | 10.56° C | 82% | 1028.6 hPa | 0 mm | - | 5 W/m² | - |
| 1777228723 | 11.67° C | 79% | 1028.4 hPa | 0 mm | - | 22 W/m² | - |
| 1777227519 | 12.22° C | 76% | 1028.7 hPa | 0 mm | - | 40 W/m² | - |
| 1777226916 | 12.78° C | 75% | 1028.5 hPa | 0 mm | - | 50 W/m² | - |
| 1777218467 | 16.67° C | 63% | 1028.5 hPa | 0 mm | - | 209 W/m² | - |
| 1777217230 | 17.22° C | 59% | 1028.5 hPa | 0 mm | - | 210 W/m² | - |
| 1777216003 | 18.89° C | 56% | 1028.5 hPa | 0 mm | - | 381 W/m² | - |
| 1777214216 | 18.89° C | 57% | 1028.7 hPa | 0 mm | - | 447 W/m² | - |
| 1777204799 | 17.22° C | 57% | 1029.4 hPa | 0 mm | - | 552 W/m² | - |
| 1777202376 | 17.22° C | 59% | 1029.7 hPa | 0 mm | - | 544 W/m² | - |
| 1777194495 | 13.89° C | 70% | 1029.8 hPa | 0 mm | - | 456 W/m² | - |
| 1777187807 | 10° C | 86% | 1029.6 hPa | 0 mm | - | 215 W/m² | - |
| 1777184199 | 6.67° C | 96% | 1029.5 hPa | 0 mm | - | 52 W/m² | - |
| 1777179929 | 6.67° C | 96% | 1028.9 hPa | 0 mm | - | 13 W/m² | - |
| 1777174172 | 5.56° C | 94% | 1028.2 hPa | 0 mm | - | 0 W/m² | - |
| 1777172352 | 2.22° C | 92% | 1028.3 hPa | 0 mm | - | 0 W/m² | - |
| 1777168690 | 2.78° C | 90% | 1028.2 hPa | 0 mm | - | 0 W/m² | - |
| 1777155967 | 7.22° C | 74% | 1026.8 hPa | 0 mm | - | 0 W/m² | - |
| 1777155378 | 7.78° C | 72% | 1026.9 hPa | 0 mm | - | 0 W/m² | - |
* Rain latest hour (hover to see other rain measurements)
** Current wind speed in m/s (hover to see current wind gust speed)